Tiempo atmosférico en la estación meteorológica de Antigua, Las Palmas (252 m.)



Fecha
DESCASC
Temp. máxima en grados centígrados (hora)
DESCASC
Temp. mínima en grados centígrados (hora)
DESCASC
Temp. media en grados centígrados
DESCASC
Racha de viento máxima en m/sg (hora)
DESCASC
Velocidad máxima media en intervalos de 10 minutos(hora)
DESCASC
Precipitaciones diarias en mm
DESCASC
Precipitaciones de 00:00 a 06:00 en mm
DESCASC
Precipitaciones de 06:00 a 12:00 en mm
DESCASC
Precipitaciones de 12:00 a 18:00 en mm
DESCASC
Precipitaciones de 18:00 a 24:00 en mm
DESCASC
16-06-2019 24.1 (17:00) 11.9 (07:00) 18 9.72 (16:00) 6.39 (16:00) 0 0 0 0 0
15-06-2019 23.4 (16:20) 12 (07:00) 17.7 20.28 (17:30) 6.67 (16:10) 0 0 0 0 0
14-06-2019 23.1 (14:30) 12.9 (07:00) 18 10 (14:30) 5.83 (12:40) 0 0 0 0 0
13-06-2019 22.7 (16:00) 15.8 (00:00) 19.3 11.94 (15:30) 7.22 (16:50) 0 0 0 0 0
12-06-2019 21.8 (15:30) 16.1 (00:00) 18.9 15 (17:40) 10.28 (17:50) 1 0.8 0.2 0 0
11-06-2019 22 (13:30) 16.3 (00:00) 19.1 15.56 (18:20) 11.39 (16:50) 0 0 0 0 0
10-06-2019 22.5 (14:40) 16.4 (00:00) 19.4 16.11 (14:40) 10.56 (18:00) 0 0 0 0 0
09-06-2019 23.3 (14:40) 15.7 (00:00) 19.5 15 (17:10) 10.83 (16:20) 0 0 0 0 0
08-06-2019 23.4 (15:00) 16.4 (00:00) 19.9 12.5 (18:00) 9.72 (18:10) 0 0 0 0 0
07-06-2019 23.6 (15:10) 16 (00:00) 19.8 13.33 (17:10) 9.17 (17:10) 0 0 0 0 0
06-06-2019 21.7 (14:30) 15.8 (00:00) 18.8 14.44 (19:10) 10.56 (18:50) 0 0 0 0 0
05-06-2019 22.7 (15:40) 16.8 (00:00) 19.8 13.33 (18:00) 9.44 (17:30) 0 0 0 0 0
04-06-2019 27 (11:40) 17.2 (00:00) 22.1 13.33 (22:10) 9.72 (22:10) 0 0 0 0 0
03-06-2019 31.3 (13:00) 18.7 (00:00) 25 11.11 (02:40) 7.78 (21:10) 0 0 0 0 0
02-06-2019 33.5 (16:10) 16.9 (00:00) 25.2 9.17 (04:50) 6.94 (04:50) 0 0 0 0 0
01-06-2019 28.3 (14:10) 16.9 (00:00) 22.6 11.39 (05:00) 8.61 (05:10) 0 0 0 0 0
31-05-2019 23.8 (13:50) 15.8 (00:00) 19.8 14.17 (18:50) 11.11 (18:50) 0 0 0 0 0
30-05-2019 22 (14:20) 15.2 (00:00) 18.6 15.56 (19:30) 12.78 (19:30) 0 0 0 0 0
29-05-2019 22.4 (15:40) 15.8 (00:00) 19.1 13.61 (20:00) 10.28 (19:20) 0 0 0 0 0
28-05-2019 23.3 (15:40) 16.6 (00:00) 19.9 13.89 (05:50) 11.39 (06:40) 0 0 0 0 0
27-05-2019 24.1 (14:00) 16.9 (00:00) 20.5 13.33 (21:50) 10 (19:00) 0 0 0 0 0
26-05-2019 23.2 (16:30) 15.9 (00:00) 19.6 14.17 (19:20) 10 (00:30) 0 0 0 0 0
25-05-2019 23.3 (14:20) 15.7 (00:00) 19.5 15 (23:20) 11.11 (23:20) 0 0 0 0 0
24-05-2019 26.4 (14:00) 16.2 (00:00) 21.3 15.56 (02:00) 11.39 (01:30) 0 0 0 0 0
23-05-2019 22.6 (14:30) 15.7 (00:00) 19.2 16.94 (01:00) 11.67 (01:30) 0 0 0 0 0
22-05-2019 23.3 (13:00) 16.2 (00:00) 19.8 16.11 (22:10) 11.11 (22:10) 0 0 0 0 0
21-05-2019 22 (15:30) 16.1 (01:40) 19.1 14.44 (15:40) 10.56 (19:00) 0 0 0 0 0

Gráficas

Temp. máximas Temp. mínimas Temp. medias Precipitaciones Rachas de viento máximas Velocidades máximas media en intervalos de 10 minutos

Datos horarios

Fecha y hora oficial Temperatura (ºC) Velocidad del viento (km/h) Dirección del viento Racha (km/h) Dirección de racha Precipitación (mm) Presión (hPa) Tendencia (hPa) Humedad (%)
2019-06-19 23:00:00 19.6 21 Noroeste 30 Noroeste 0 -- -- 85
2019-06-19 22:00:00 19.4 22 Noroeste 32 Noroeste 0 -- -- 84
2019-06-19 21:00:00 19.8 22 Noroeste 30 Noroeste 0 -- -- 81
2019-06-19 20:00:00 21.1 21 Noroeste 33 Noroeste 0 -- -- 73
2019-06-19 19:00:00 22.7 23 Noroeste 34 Norte 0 -- -- 67
2019-06-19 18:00:00 23.9 22 Norte 36 Norte 0 -- -- 57
2019-06-19 17:00:00 24.4 22 Norte 40 Noroeste 0 -- -- 56
2019-06-19 16:00:00 24.2 28 Noroeste 43 Noroeste 0 -- -- 58
2019-06-19 15:00:00 24.8 21 Noroeste 39 Noroeste 0 -- -- 54
2019-06-19 14:00:00 24.6 22 Noroeste 35 Norte 0 -- -- 56
2019-06-19 13:00:00 24.2 17 Norte 30 Norte 0 -- -- 54
2019-06-19 12:00:00 23.1 19 Norte -- -- -- -- -- 60
2019-06-19 11:00:00 -- -- -- -- -- -- -- -- --
2019-06-19 10:00:00 -- -- -- -- -- -- -- -- --
2019-06-19 09:00:00 -- -- -- -- -- -- -- -- --
2019-06-19 08:00:00 -- -- -- -- -- -- -- -- --
2019-06-19 07:00:00 -- -- -- -- -- -- -- -- --
2019-06-19 06:00:00 -- -- -- -- -- -- -- -- --
2019-06-19 05:00:00 -- -- -- -- -- -- -- -- --
2019-06-19 04:00:00 -- -- -- -- -- -- -- -- --
2019-06-19 03:00:00 -- -- -- -- -- -- -- -- --
2019-06-19 02:00:00 -- -- -- -- -- -- -- -- --
2019-06-19 01:00:00 -- -- -- -- -- -- -- -- --
2019-06-19 00:00:00 -- -- -- -- -- -- -- -- --
2019-06-18 23:00:00 -- -- -- -- -- -- -- -- --
2019-06-18 22:00:00 -- -- -- -- -- -- -- -- --
2019-06-18 21:00:00 -- -- -- -- -- -- -- -- --
2019-06-18 20:00:00 -- -- -- -- -- -- -- -- --
2019-06-18 19:00:00 -- -- -- -- -- -- -- -- --
2019-06-18 18:00:00 23.8 16 Noroeste 23 Noroeste 0 -- -- 68
2019-06-18 17:00:00 23.2 11 Este 20 Este 0 -- -- 70
2019-06-18 16:00:00 24.9 10 Este 26 Norte 0 -- -- 63
2019-06-18 15:00:00 25.7 17 Norte 28 Norte 0 -- -- 60
2019-06-18 14:00:00 24.8 13 Norte 30 Norte 0 -- -- 63
2019-06-18 13:00:00 24.9 17 Noroeste 27 Noroeste 0 -- -- 63
2019-06-18 12:00:00 24.7 14 Norte 28 Norte 0 -- -- 60
2019-06-18 11:00:00 22.9 15 Norte 28 Noroeste 0 -- -- 64
2019-06-18 10:00:00 20.6 17 Noroeste 25 Noroeste 0 -- -- 77
2019-06-18 09:00:00 20.4 18 Noroeste 31 Noroeste 0 -- -- 79
2019-06-18 08:00:00 18.8 17 Noroeste 21 Noroeste 0 -- -- 83
2019-06-18 07:00:00 16.7 15 Noroeste 19 Noroeste 0 -- -- 91
2019-06-18 06:00:00 15.4 4 Noroeste 9 Norte 0 -- -- 88
2019-06-18 05:00:00 16.2 2 Noroeste 7 Norte 0 -- -- 85
2019-06-18 04:00:00 17 3 Nordeste 8 Norte 0 -- -- 84
2019-06-18 03:00:00 17.4 0 Calma 10 Norte 0 -- -- 83
2019-06-18 02:00:00 17.4 3 Norte 12 Noroeste 0 -- -- 81
2019-06-18 01:00:00 17.6 6 Norte 12 Norte 0 -- -- 78
2019-06-18 00:00:00 18.1 8 Norte 13 Nordeste 0 -- -- 78
2019-06-17 23:00:00 19.1 8 Noroeste 19 Noroeste 0 -- -- 60
2019-06-17 22:00:00 19.4 12 Norte 17 Norte 0 -- -- 60
2019-06-17 21:00:00 20.2 12 Noroeste 24 Noroeste 0 -- -- 59
2019-06-17 20:00:00 22.1 19 Norte 29 Norte 0 -- -- 53
2019-06-17 19:00:00 23 22 Noroeste 29 Norte 0 -- -- 52
2019-06-17 18:00:00 23.8 18 Norte 26 Noroeste 0 -- -- 51
2019-06-17 17:00:00 24.4 16 Norte 26 Noroeste 0 -- -- 53
2019-06-17 16:00:00 24.8 14 Norte 23 Norte 0 -- -- 52
2019-06-17 15:00:00 24.8 15 Norte 27 Noroeste 0 -- -- 50
2019-06-17 14:00:00 24.8 14 Norte 26 Norte 0 -- -- 49
2019-06-17 13:00:00 23.8 12 Norte 22 Norte 0 -- -- 51
2019-06-17 12:00:00 22.8 13 Noroeste 23 Noroeste 0 -- -- 56
2019-06-17 11:00:00 21.3 12 Norte 23 Norte 0 -- -- 62
2019-06-17 10:00:00 19.5 14 Norte 21 Noroeste 0 -- -- 69
2019-06-17 09:00:00 18 10 Norte 15 Norte 0 -- -- 78
2019-06-17 08:00:00 15.2 2 Noroeste 5 Noroeste 0 -- -- 90
2019-06-17 07:00:00 13.5 4 Noroeste 10 Noroeste 0 -- -- 91
2019-06-17 06:00:00 14 8 Noroeste 20 Noroeste 0 -- -- 89
2019-06-17 05:00:00 14.7 7 Noroeste 10 Noroeste 0 -- -- 90
2019-06-17 04:00:00 14.4 9 Oeste 10 Oeste 0 -- -- 86
2019-06-17 03:00:00 14.4 5 Oeste 7 Oeste 0 -- -- 85
2019-06-17 02:00:00 14.9 5 Noroeste 6 Noroeste 0 -- -- 83
2019-06-17 01:00:00 15.9 0 Calma 12 Noroeste 0 -- -- 82
2019-06-17 00:00:00 16.4 8 Noroeste 12 Noroeste 0 -- -- 80
2019-06-16 23:00:00 17.3 5 Nordeste 14 Nordeste 0 -- -- 76
2019-06-16 22:00:00 18 9 Nordeste 18 Norte 0 -- -- 72
2019-06-16 21:00:00 18.8 10 Nordeste 27 Norte 0 -- -- 67
2019-06-16 20:00:00 20.8 12 Nordeste 24 Este 0 -- -- 62
2019-06-16 19:00:00 21.7 17 Este 31 Sudeste 0 -- -- 59
2019-06-16 18:00:00 23.4 12 Norte 33 Este 0 -- -- 53
2019-06-16 17:00:00 24.1 12 Nordeste 32 Norte 0 -- -- 52
2019-06-16 16:00:00 23.5 23 Norte 35 Noroeste 0 -- -- 56
2019-06-16 15:00:00 23.6 17 Norte 27 Norte 0 -- -- 55
2019-06-16 14:00:00 23.3 15 Noroeste 33 Noroeste 0 -- -- 53
2019-06-16 13:00:00 22.8 12 Norte 26 Nordeste 0 -- -- 54
2019-06-16 12:00:00 21.9 15 Norte 26 Norte 0 -- -- 56
2019-06-16 11:00:00 20.7 15 Norte 29 Norte 0 -- -- 59
2019-06-16 10:00:00 19.2 17 Norte 25 Noroeste 0 -- -- 65
2019-06-16 09:00:00 17.7 13 Norte 19 Norte 0 -- -- 75
2019-06-16 08:00:00 14.9 3 Norte 9 Noroeste 0 -- -- 87
2019-06-16 07:00:00 11.9 7 Noroeste 9 Norte 0 -- -- 87
2019-06-16 06:00:00 12.8 5 Noroeste 14 Noroeste 0 -- -- 86
2019-06-16 05:00:00 13.7 12 Noroeste 13 Noroeste 0 -- -- 87
2019-06-16 04:00:00 13 8 Noroeste 10 Noroeste 0 -- -- 86
2019-06-16 03:00:00 13.5 7 Noroeste 9 Noroeste 0 -- -- 84
2019-06-16 02:00:00 14.3 9 Noroeste 10 Noroeste 0 -- -- 83
2019-06-16 01:00:00 15.5 9 Noroeste 14 Norte 0 -- -- 80
2019-06-16 00:00:00 16.5 12 Norte 18 Norte 0 -- -- 77
2019-06-15 23:00:00 17.2 13 Norte 22 Norte 0 -- -- 73
2019-06-15 22:00:00 18.2 17 Norte 22 Norte 0 -- -- 68
2019-06-15 21:00:00 18.6 14 Nordeste 24 Nordeste 0 -- -- 70
2019-06-15 20:00:00 19.2 18 Nordeste 26 Nordeste 0 -- -- 66
2019-06-15 19:00:00 20.3 14 Nordeste 28 Nordeste 0 -- -- 64
2019-06-15 18:00:00 22.2 9 Nordeste 73 Norte 0 -- -- 56
2019-06-15 17:00:00 23.4 23 Norte 49 Norte 0 -- -- 51
2019-06-15 16:00:00 23.2 24 Norte 36 Noroeste 0 -- -- 51
2019-06-15 15:00:00 22.4 24 Noroeste 34 Noroeste 0 -- -- 55
2019-06-15 14:00:00 22.3 18 Norte 33 Norte 0 -- -- 54
2019-06-15 13:00:00 21.4 13 Nordeste 26 Nordeste 0 -- -- 58
2019-06-15 12:00:00 20.4 18 Nordeste 29 Nordeste 0 -- -- 60
2019-06-15 11:00:00 20.3 16 Nordeste 27 Nordeste 0 -- -- 58
2019-06-15 10:00:00 19.6 19 Nordeste 27 Nordeste 0 -- -- 60
2019-06-15 09:00:00 18.2 16 Nordeste 26 Nordeste 0 -- -- 74
2019-06-15 08:00:00 14.6 8 Norte 13 Noroeste 0 -- -- 83
2019-06-15 07:00:00 12 9 Noroeste 11 Noroeste 0 -- -- 85
2019-06-15 06:00:00 12.8 6 Noroeste 10 Noroeste 0 -- -- 86
2019-06-15 05:00:00 13.8 10 Noroeste 13 Noroeste 0 -- -- 86
2019-06-15 04:00:00 13.5 8 Noroeste 10 Noroeste 0 -- -- 84
2019-06-15 03:00:00 14.4 4 Noroeste 9 Noroeste 0 -- -- 83
2019-06-15 02:00:00 14.2 7 Noroeste 9 Noroeste 0 -- -- 80
2019-06-15 01:00:00 14.8 4 Noroeste 12 Noroeste 0 -- -- 78
2019-06-15 00:00:00 15.9 7 Noroeste 10 Noroeste 0 -- -- 77
2019-06-14 23:00:00 17.4 8 Nordeste 20 Nordeste 0 -- -- 75
2019-06-14 22:00:00 18 13 Nordeste 22 Nordeste 0 -- -- 72
2019-06-14 21:00:00 18.4 14 Nordeste 23 Nordeste 0 -- -- 70
2019-06-14 20:00:00 19.1 16 Nordeste 22 Nordeste 0 -- -- 61
2019-06-14 19:00:00 19.4 11 Nordeste 23 Este 0 -- -- 62
2019-06-14 18:00:00 19.9 13 Este 24 Este 0 -- -- 62
2019-06-14 17:00:00 20.3 16 Este 27 Este 0 -- -- 61
2019-06-14 16:00:00 20.4 15 Este 29 Este 0 -- -- 63
2019-06-14 15:00:00 21.9 19 Norte 36 Norte 0 -- -- 55
2019-06-14 14:00:00 22.8 10 Noroeste 29 Norte 0 -- -- 46
2019-06-14 13:00:00 22.7 18 Noroeste 35 Oeste 0 -- -- 43
2019-06-14 12:00:00 22.1 14 Norte 32 Norte 0 -- -- 44
2019-06-14 11:00:00 20.8 14 Norte 29 Norte 0 -- -- 47
2019-06-14 10:00:00 19.1 18 Norte 28 Norte 0 -- -- 51
2019-06-14 09:00:00 18.1 12 Norte 19 Norte 0 -- -- 62
2019-06-14 08:00:00 15.1 10 Noroeste 14 Noroeste 0 -- -- 84
2019-06-14 07:00:00 12.9 7 Noroeste 14 Noroeste 0 -- -- 89
2019-06-14 06:00:00 14 12 Noroeste 15 Noroeste 0 -- -- 88
2019-06-14 05:00:00 13.8 9 Noroeste 15 Noroeste 0 -- -- 87
2019-06-14 04:00:00 14.4 11 Noroeste 17 Noroeste 0 -- -- 86
2019-06-14 03:00:00 14.9 12 Noroeste 21 Noroeste 0 -- -- 83
2019-06-14 02:00:00 15 13 Norte 19 Norte 0 -- -- 84
2019-06-14 01:00:00 15.4 12 Noroeste 15 Noroeste 0 -- -- 83
2019-06-14 00:00:00 15.8 10 Norte 20 Noroeste 0 -- -- 81
2019-06-13 23:00:00 16.4 15 Noroeste 26 Noroeste 0 -- -- 79
2019-06-13 22:00:00 17 21 Noroeste 32 Noroeste 0 -- -- 78
2019-06-13 21:00:00 17.7 23 Norte 33 Noroeste 0 -- -- 73
2019-06-13 20:00:00 19.4 21 Norte 33 Noroeste 0 -- -- 62
2019-06-13 19:00:00 20.6 24 Norte 35 Norte 0 -- -- 57
2019-06-13 18:00:00 21.6 23 Noroeste 37 Noroeste 0 -- -- 58
2019-06-13 17:00:00 22.1 24 Noroeste 36 Noroeste 0 -- -- 54
2019-06-13 16:00:00 22.7 21 Norte 43 Noroeste 0 -- -- 51
2019-06-13 15:00:00 22 23 Noroeste 36 Noroeste 0 -- -- 56
2019-06-13 14:00:00 21.2 21 Norte 33 Norte 0 -- -- 60
2019-06-13 13:00:00 21.1 23 Noroeste 32 Noroeste 0 -- -- 60
2019-06-13 12:00:00 20.5 22 Noroeste 36 Norte 0 -- -- 60
2019-06-13 11:00:00 20.6 25 Norte 39 Norte 0 -- -- 57
2019-06-13 10:00:00 18.3 26 Norte 37 Noroeste 0 -- -- 69
2019-06-13 09:00:00 17.8 26 Noroeste 36 Noroeste 0 -- -- 76
2019-06-13 08:00:00 17.1 23 Norte 34 Noroeste 0 -- -- 81
2019-06-13 07:00:00 16.6 20 Noroeste 32 Noroeste 0 -- -- 81
2019-06-13 06:00:00 16.6 22 Noroeste 36 Noroeste 0 -- -- 79
2019-06-13 05:00:00 16.8 23 Noroeste 33 Noroeste 0 -- -- 80
2019-06-13 04:00:00 16.7 18 Noroeste 32 Noroeste 0 -- -- 80
2019-06-13 03:00:00 16.7 23 Noroeste 35 Noroeste 0 -- -- 83
2019-06-13 02:00:00 16.7 23 Norte 36 Noroeste 0 -- -- 81
2019-06-13 01:00:00 16.9 19 Norte 31 Norte 0 -- -- 81
2019-06-13 00:00:00 16.3 17 Norte 37 Norte 0 -- -- 79
2019-06-12 23:00:00 16.9 22 Norte 40 Noroeste 0 -- -- 75
2019-06-12 22:00:00 17 27 Noroeste 45 Norte 0 -- -- 74
2019-06-12 21:00:00 17.5 30 Noroeste 46 Norte 0 -- -- 74
2019-06-12 20:00:00 18 22 Norte 44 Norte 0 -- -- 71
2019-06-12 19:00:00 19.2 33 Norte 53 Noroeste 0 -- -- 62
2019-06-12 18:00:00 19.5 36 Norte 54 Norte 0 -- -- 63
2019-06-12 17:00:00 20.2 32 Norte 50 Noroeste 0 -- -- 63
2019-06-12 16:00:00 21.1 34 Norte 47 Noroeste 0 -- -- 65
2019-06-12 15:00:00 21 33 Norte 46 Norte 0 -- -- 68
2019-06-12 14:00:00 19.8 28 Norte 46 Noroeste 0 -- -- 76
2019-06-12 13:00:00 19.6 27 Norte 45 Noroeste 0 -- -- 77
2019-06-12 12:00:00 18.5 29 Norte 49 Norte 0 -- -- 91
2019-06-12 11:00:00 18.1 28 Norte 49 Norte 0 -- -- 91
2019-06-12 10:00:00 17.2 31 Norte 48 Norte 0 -- -- 95
2019-06-12 09:00:00 16.6 32 Norte 47 Norte 0.2 -- -- 97
2019-06-12 08:00:00 16.3 24 Norte 42 Norte 0 -- -- 97
2019-06-12 07:00:00 16.2 24 Norte 39 Norte 0 -- -- 97
2019-06-12 06:00:00 16.4 27 Norte 43 Norte 0.4 -- -- 97
2019-06-12 05:00:00 16.3 29 Norte 45 Norte 0 -- -- 97
2019-06-12 04:00:00 16.5 24 Norte 37 Norte 0 -- -- 96
2019-06-12 03:00:00 16.4 26 Norte 46 Norte 0.2 -- -- 96
2019-06-12 02:00:00 16.5 21 Norte 31 Norte 0.2 -- -- 94
2019-06-12 01:00:00 16.9 24 Norte 38 Norte 0 -- -- 92
2019-06-12 00:00:00 17.7 24 Norte 42 Norte 0 -- -- 86
2019-06-11 23:00:00 18.2 26 Norte 47 Norte 0 -- -- 76
2019-06-11 22:00:00 18.2 27 Norte 53 Norte 0 -- -- 77
2019-06-11 21:00:00 18.4 33 Norte 50 Norte 0 -- -- 73
2019-06-11 20:00:00 18.6 36 Norte 49 Noroeste 0 -- -- 74
2019-06-11 19:00:00 19 33 Norte 56 Noroeste 0 -- -- 71
2019-06-11 18:00:00 19.5 41 Norte 54 Noroeste 0 -- -- 71
2019-06-11 17:00:00 20.3 40 Norte 55 Norte 0 -- -- 67
2019-06-11 16:00:00 21 38 Noroeste 53 Noroeste 0 -- -- 67
2019-06-11 15:00:00 21.6 38 Norte 53 Noroeste 0 -- -- 62
2019-06-11 14:00:00 21.9 38 Noroeste 55 Noroeste 0 -- -- 60
2019-06-11 13:00:00 21.4 35 Noroeste 50 Norte 0 -- -- 61
2019-06-11 12:00:00 21.1 35 Norte 48 Norte 0 -- -- 57
2019-06-11 11:00:00 19.6 33 Norte 46 Noroeste 0 -- -- 66
2019-06-11 10:00:00 19.9 34 Norte 47 Norte 0 -- -- 62
2019-06-11 09:00:00 18 32 Norte 52 Norte 0 -- -- 70
2019-06-11 08:00:00 17.3 28 Norte 37 Norte 0 -- -- 76
2019-06-11 07:00:00 17 26 Norte 44 Norte 0 -- -- 80
2019-06-11 06:00:00 16.9 25 Norte 37 Norte 0 -- -- 81
2019-06-11 05:00:00 16.4 26 Norte 44 Norte 0 -- -- 81
2019-06-11 04:00:00 17 33 Norte 48 Norte 0 -- -- 79
2019-06-11 03:00:00 17 33 Norte 45 Norte 0 -- -- 81
2019-06-11 02:00:00 16.7 32 Norte 46 Norte 0 -- -- 82
2019-06-11 01:00:00 16.8 33 Norte 48 Norte 0 -- -- 82
2019-06-11 00:00:00 17.1 36 Norte 49 Norte 0 -- -- 81
2019-06-10 23:00:00 17.3 26 Norte 46 Norte 0 -- -- 80
2019-06-10 22:00:00 17.8 32 Norte 46 Noroeste 0 -- -- 81
2019-06-10 21:00:00 17.8 34 Norte 49 Norte 0 -- -- 77
2019-06-10 20:00:00 18.9 34 Norte 50 Norte 0 -- -- 72
2019-06-10 19:00:00 19.8 38 Norte 50 Norte 0 -- -- 67
2019-06-10 18:00:00 20.7 38 Norte 56 Noroeste 0 -- -- 68
2019-06-10 17:00:00 21.9 33 Norte 53 Noroeste 0 -- -- 60
2019-06-10 16:00:00 21.4 35 Norte 55 Norte 0 -- -- 64
2019-06-10 15:00:00 22 37 Norte 58 Noroeste 0 -- -- 59
2019-06-10 14:00:00 22.2 37 Norte 54 Norte 0 -- -- 58
2019-06-10 13:00:00 22.1 31 Norte 52 Noroeste 0 -- -- 59
2019-06-10 12:00:00 21.5 30 Norte 45 Noroeste 0 -- -- 59
2019-06-10 11:00:00 20.4 28 Norte 43 Norte 0 -- -- 66
2019-06-10 10:00:00 19.7 30 Norte 41 Norte 0 -- -- 64
2019-06-10 09:00:00 18.2 23 Norte 35 Norte 0 -- -- 73
2019-06-10 08:00:00 17.3 21 Norte 40 Norte 0 -- -- 75
2019-06-10 07:00:00 16.9 19 Norte 36 Norte 0 -- -- 77
2019-06-10 06:00:00 16.7 23 Norte 36 Norte 0 -- -- 79
2019-06-10 05:00:00 16.5 26 Norte 37 Norte 0 -- -- 79
2019-06-10 04:00:00 16.5 24 Norte 40 Norte 0 -- -- 78
2019-06-10 03:00:00 16.8 24 Norte 34 Norte 0 -- -- 77
2019-06-10 02:00:00 17.2 25 Norte 37 Norte 0 -- -- 77
2019-06-10 01:00:00 17.2 23 Norte 35 Norte 0 -- -- 75
2019-06-10 00:00:00 17.6 22 Norte 36 Norte 0 -- -- 75
2019-06-09 23:00:00 17.2 22 Norte 39 Norte 0 -- -- 75
2019-06-09 22:00:00 17.2 28 Norte 43 Norte 0 -- -- 74
2019-06-09 21:00:00 17.7 32 Norte 46 Norte 0 -- -- 71
2019-06-09 20:00:00 18.9 33 Norte 49 Norte 0 -- -- 65
2019-06-09 19:00:00 20.3 32 Norte 50 Norte 0 -- -- 59
2019-06-09 18:00:00 21.2 35 Norte 54 Noroeste 0 -- -- 57
2019-06-09 17:00:00 21.9 36 Norte 54 Norte 0 -- -- 56
2019-06-09 16:00:00 22.4 36 Norte 51 Norte 0 -- -- 51
2019-06-09 15:00:00 23 30 Norte 50 Noroeste 0 -- -- 49
2019-06-09 14:00:00 22.6 27 Norte 44 Norte 0 -- -- 52
2019-06-09 13:00:00 22.6 24 Norte 41 Norte 0 -- -- 52
2019-06-09 12:00:00 21.3 27 Norte 40 Norte 0 -- -- 52
2019-06-09 11:00:00 20.1 25 Norte 40 Norte 0 -- -- 60
2019-06-09 10:00:00 18.6 23 Norte 33 Nordeste 0 -- -- 60
2019-06-09 09:00:00 17.8 21 Norte 34 Norte 0 -- -- 66
2019-06-09 08:00:00 17.3 18 Norte 28 Norte 0 -- -- 62
2019-06-09 07:00:00 17 16 Norte 33 Norte 0 -- -- 69
2019-06-09 06:00:00 16.9 25 Norte 33 Norte 0 -- -- 74
2019-06-09 05:00:00 16.8 19 Norte 26 Norte 0 -- -- 76
2019-06-09 04:00:00 16.9 12 Norte 23 Norte 0 -- -- 74
2019-06-09 03:00:00 16 12 Norte 21 Norte 0 -- -- 75
2019-06-09 02:00:00 16.4 16 Norte 27 Norte 0 -- -- 71
2019-06-09 01:00:00 16.5 19 Norte 32 Norte 0 -- -- 76
2019-06-09 00:00:00 16.6 21 Norte 33 Norte 0 -- -- 75
2019-06-08 23:00:00 17.4 27 Norte 39 Norte 0 -- -- 72
2019-06-08 22:00:00 17.1 24 Norte 39 Norte 0 -- -- 74
2019-06-08 21:00:00 17.8 28 Norte 41 Norte 0 -- -- 68
2019-06-08 20:00:00 19.5 28 Norte 45 Norte 0 -- -- 58
2019-06-08 19:00:00 20.9 29 Norte 45 Norte 0 -- -- 55
2019-06-08 18:00:00 21.7 33 Norte 45 Norte 0 -- -- 55
2019-06-08 17:00:00 22 30 Noroeste 41 Norte 0 -- -- 55
2019-06-08 16:00:00 23.4 27 Norte 43 Noroeste 0 -- -- 51
2019-06-08 15:00:00 23.4 26 Norte 39 Noroeste 0 -- -- 49
2019-06-08 14:00:00 23 26 Norte 41 Noroeste 0 -- -- 50
2019-06-08 13:00:00 21.5 20 Norte 30 Norte 0 -- -- 59
2019-06-08 12:00:00 20 12 Este 26 Norte 0 -- -- 70
2019-06-08 11:00:00 20.6 19 Norte 30 Norte 0 -- -- 62
2019-06-08 10:00:00 19.2 19 Norte 31 Norte 0 -- -- 72
2019-06-08 09:00:00 19 22 Norte 33 Norte 0 -- -- 77
2019-06-08 08:00:00 17.6 16 Norte 23 Noroeste 0 -- -- 86
2019-06-08 07:00:00 16.7 18 Norte 28 Norte 0 -- -- 90
2019-06-08 06:00:00 16.9 21 Norte 30 Noroeste 0 -- -- 92
2019-06-08 05:00:00 17.3 17 Norte 23 Norte 0 -- -- 93
2019-06-08 04:00:00 17.4 15 Norte 23 Norte 0 -- -- 93
2019-06-08 03:00:00 17.2 14 Norte 31 Norte 0 -- -- 93
2019-06-08 02:00:00 17.3 19 Norte 36 Norte 0 -- -- 91
2019-06-08 01:00:00 17.8 24 Norte 36 Norte 0 -- -- 89
2019-06-08 00:00:00 18.1 28 Norte 42 Norte 0 -- -- 89
2019-06-07 23:00:00 18.4 30 Norte 41 Norte 0 -- -- 88
2019-06-07 22:00:00 18.4 23 Norte 37 Noroeste 0 -- -- 87
2019-06-07 21:00:00 18.4 28 Noroeste 38 Noroeste 0 -- -- 85
2019-06-07 20:00:00 19.7 26 Noroeste 39 Noroeste 0 -- -- 78
2019-06-07 19:00:00 20.9 31 Noroeste 44 Noroeste 0 -- -- 69
2019-06-07 18:00:00 22.1 31 Noroeste 48 Noroeste 0 -- -- 67
2019-06-07 17:00:00 23.3 29 Noroeste 45 Norte 0 -- -- 62
2019-06-07 16:00:00 23.5 28 Noroeste 38 Noroeste 0 -- -- 58
2019-06-07 15:00:00 23.3 17 Norte 39 Norte 0 -- -- 55
2019-06-07 14:00:00 22.3 20 Norte 36 Noroeste 0 -- -- 59
2019-06-07 13:00:00 21.4 27 Norte 43 Norte 0 -- -- 62
2019-06-07 12:00:00 20.8 24 Norte 41 Norte 0 -- -- 62
2019-06-07 11:00:00 20.3 26 Norte 41 Norte 0 -- -- 61
2019-06-07 10:00:00 19.6 27 Norte 36 Norte 0 -- -- 65
2019-06-07 09:00:00 17.8 25 Norte 37 Norte 0 -- -- 78
2019-06-07 08:00:00 17.1 18 Norte 25 Norte 0 -- -- 81
2019-06-07 07:00:00 16.3 15 Norte 32 Norte 0 -- -- 83
2019-06-07 06:00:00 16.8 18 Norte 33 Norte 0 -- -- 82
2019-06-07 05:00:00 16.8 19 Norte 29 Norte 0 -- -- 81
2019-06-07 04:00:00 16.5 18 Norte 31 Norte 0 -- -- 81
2019-06-07 03:00:00 16 19 Norte 31 Norte 0 -- -- 82
2019-06-07 02:00:00 16.5 21 Norte 33 Norte 0 -- -- 80
2019-06-07 01:00:00 16.8 21 Norte 34 Norte 0 -- -- 77
2019-06-07 00:00:00 16.8 20 Norte 37 Norte 0 -- -- 75
2019-06-06 23:00:00 16.8 23 Norte 46 Norte 0 -- -- 77
2019-06-06 22:00:00 17.2 31 Norte 44 Noroeste 0 -- -- 75
2019-06-06 21:00:00 17.4 31 Norte 46 Noroeste 0 -- -- 68
2019-06-06 20:00:00 18.6 32 Norte 52 Norte 0 -- -- 67
2019-06-06 19:00:00 19.6 36 Norte 50 Noroeste 0 -- -- 62
2019-06-06 18:00:00 20.2 35 Norte 49 Noroeste 0 -- -- 59
2019-06-06 17:00:00 20.9 30 Noroeste 46 Noroeste 0 -- -- 55
2019-06-06 16:00:00 20.3 34 Noroeste 51 Noroeste 0 -- -- 59
2019-06-06 15:00:00 21.5 27 Noroeste 45 Noroeste 0 -- -- 50
2019-06-06 14:00:00 21.2 32 Noroeste 46 Noroeste 0 -- -- 52
2019-06-06 13:00:00 20.4 31 Noroeste 44 Noroeste 0 -- -- 55
2019-06-06 12:00:00 19.3 24 Norte 44 Norte 0 -- -- 61
2019-06-06 11:00:00 19.2 25 Norte 36 Norte 0 -- -- 64
2019-06-06 10:00:00 19.2 22 Norte 34 Norte 0 -- -- 61
2019-06-06 09:00:00 18 23 Norte 34 Norte 0 -- -- 61
2019-06-06 08:00:00 17.2 20 Norte 31 Norte 0 -- -- 68
2019-06-06 07:00:00 17 18 Norte 30 Norte 0 -- -- 73
2019-06-06 06:00:00 17 19 Norte 33 Norte 0 -- -- 75
2019-06-06 05:00:00 16.8 14 Norte 30 Noroeste 0 -- -- 84
2019-06-06 04:00:00 16.9 22 Norte 32 Norte 0 -- -- 80
2019-06-06 03:00:00 16.3 19 Norte 28 Norte 0 -- -- 77
2019-06-06 02:00:00 15.9 13 Norte 26 Norte 0 -- -- 83
2019-06-06 01:00:00 16.3 15 Norte 30 Norte 0 -- -- 81
2019-06-06 00:00:00 16.8 22 Norte 32 Norte 0 -- -- 82
2019-06-05 23:00:00 17.5 21 Norte 32 Norte 0 -- -- 83
2019-06-05 22:00:00 18.2 27 Norte 38 Norte 0 -- -- 78
2019-06-05 21:00:00 18.7 28 Norte 44 Norte 0 -- -- 80
2019-06-05 20:00:00 19.9 31 Norte 41 Norte 0 -- -- 76
2019-06-05 19:00:00 21.2 31 Norte 47 Noroeste 0 -- -- 69
2019-06-05 18:00:00 22.2 32 Noroeste 48 Norte 0 -- -- 69
2019-06-05 17:00:00 22.5 32 Noroeste 42 Norte 0 -- -- 71
2019-06-05 16:00:00 22.3 30 Noroeste 46 Noroeste 0 -- -- 70
2019-06-05 15:00:00 21.3 14 Nordeste 38 Noroeste 0 -- -- 70
2019-06-05 14:00:00 21.4 28 Noroeste 40 Norte 0 -- -- 75
2019-06-05 13:00:00 21.1 17 Nordeste 28 Nordeste 0 -- -- 72
2019-06-05 12:00:00 21.4 15 Nordeste 29 Nordeste 0 -- -- 68
2019-06-05 11:00:00 21.1 16 Norte 28 Norte 0 -- -- 69
2019-06-05 10:00:00 19.8 23 Norte 30 Norte 0 -- -- 78
2019-06-05 09:00:00 19.1 20 Norte 31 Norte 0 -- -- 82
2019-06-05 08:00:00 18.2 22 Norte 32 Norte 0 -- -- 89
2019-06-05 07:00:00 18.1 19 Norte 33 Noroeste 0 -- -- 85
2019-06-05 06:00:00 17.7 20 Norte 32 Norte 0 -- -- 88
2019-06-05 05:00:00 18.2 19 Norte 37 Norte 0 -- -- 91
2019-06-05 04:00:00 18.3 25 Norte 39 Noroeste 0 -- -- 91
2019-06-05 03:00:00 18.1 23 Norte 41 Norte 0 -- -- 88
2019-06-05 02:00:00 18.2 26 Norte 36 Norte 0 -- -- 87
2019-06-05 01:00:00 -- 24 Norte 35 Norte 0 -- -- --
2019-06-05 00:00:00 18.1 21 Norte 39 Norte 0 -- -- 86
2019-06-04 23:00:00 18.2 28 Norte 48 Noroeste 0 -- -- 87
2019-06-04 22:00:00 18.2 32 Norte 45 Noroeste 0 -- -- 86
2019-06-04 21:00:00 18.4 26 Norte 37 Noroeste 0 -- -- 84
2019-06-04 20:00:00 20.4 25 Noroeste 34 Noroeste 0 -- -- 76
2019-06-04 19:00:00 23 26 Noroeste 36 Norte 0 -- -- 66
2019-06-04 18:00:00 24.3 30 Noroeste 42 Noroeste 0 -- -- 62
2019-06-04 17:00:00 25.2 27 Noroeste 43 Oeste 0 -- -- 61
2019-06-04 16:00:00 25.6 28 Noroeste 40 Noroeste 0 -- -- 60
2019-06-04 15:00:00 26.5 27 Noroeste 40 Noroeste 0 -- -- 56
2019-06-04 14:00:00 26.2 29 Noroeste 38 Noroeste 0 -- -- 57
2019-06-04 13:00:00 26.3 27 Noroeste 41 Noroeste 0 -- -- 56
2019-06-04 12:00:00 26.4 23 Noroeste 31 Norte 0 -- -- 54
2019-06-04 11:00:00 24.8 20 Norte 35 Noroeste 0 -- -- 55
2019-06-04 10:00:00 21.9 24 Norte 32 Norte 0 -- -- 69
2019-06-04 09:00:00 19.3 27 Noroeste 35 Noroeste 0 -- -- 87
2019-06-04 08:00:00 17.7 26 Norte 35 Noroeste 0 -- -- 93
2019-06-04 07:00:00 17.4 21 Norte 37 Noroeste 0 -- -- 90
2019-06-04 06:00:00 17.3 26 Noroeste 39 Norte 0 -- -- 93
2019-06-04 05:00:00 17.3 31 Noroeste 42 Noroeste 0 -- -- 93
2019-06-04 04:00:00 17.4 24 Norte 37 Norte 0 -- -- 92
2019-06-04 03:00:00 17.6 23 Norte 31 Norte 0 -- -- 93
2019-06-04 02:00:00 17.9 26 Noroeste 34 Norte 0 -- -- 92
2019-06-04 01:00:00 18.3 20 Norte 31 Norte 0 -- -- 91
2019-06-04 00:00:00 18.7 21 Norte 29 Noroeste 0 -- -- 90
2019-06-03 23:00:00 18.8 21 Noroeste 33 Norte 0 -- -- 89
2019-06-03 22:00:00 19.3 24 Norte 34 Norte 0 -- -- 87
2019-06-03 21:00:00 20.5 25 Norte 31 Norte 0 -- -- 83
2019-06-03 20:00:00 23.3 21 Norte 27 Norte 0 -- -- 71
2019-06-03 19:00:00 25.7 18 Norte 31 Norte 0 -- -- 61
2019-06-03 18:00:00 27.4 21 Norte 31 Norte 0 -- -- 57
2019-06-03 17:00:00 28.5 22 Norte 29 Norte 0 -- -- 52
2019-06-03 16:00:00 29.7 21 Norte 28 Norte 0 -- -- 50
2019-06-03 15:00:00 29.7 18 Norte 24 Norte 0 -- -- 50
2019-06-03 14:00:00 29.7 18 Norte 28 Norte 0 -- -- 50
2019-06-03 13:00:00 31.3 9 Norte 19 Nordeste 0 -- -- 44
2019-06-03 12:00:00 29.5 11 Norte 23 Norte 0 -- -- 47
2019-06-03 11:00:00 28.1 18 Norte 24 Norte 0 -- -- 50
2019-06-03 10:00:00 26.9 13 Norte 18 Norte 0 -- -- 50
2019-06-03 09:00:00 27.8 6 Noroeste 15 Noroeste 0 -- -- 28
2019-06-03 08:00:00 20.1 4 Noroeste 15 Norte 0 -- -- 69
2019-06-03 07:00:00 19.3 11 Norte 15 Norte 0 -- -- 70
2019-06-03 06:00:00 19.9 12 Norte 19 Norte 0 -- -- 61
2019-06-03 05:00:00 22.8 5 Noroeste 18 Noroeste 0 -- -- 35
2019-06-03 04:00:00 23.2 15 Noroeste 28 Noroeste 0 -- -- 37
2019-06-03 03:00:00 24.3 21 Noroeste 40 Oeste 0 -- -- 25
2019-06-03 02:00:00 24.5 10 Nordeste 20 Nordeste 0 -- -- 32
2019-06-03 01:00:00 24.7 10 Nordeste 20 Nordeste 0 -- -- 34
2019-06-03 00:00:00 21.7 6 Norte 12 Norte 0 -- -- 68
2019-06-02 23:00:00 22.8 11 Norte 22 Este 0 -- -- 63
2019-06-02 22:00:00 26.2 14 Nordeste 33 Norte 0 -- -- 33
2019-06-02 21:00:00 26.5 20 Nordeste 33 Nordeste 0 -- -- 34
2019-06-02 20:00:00 25.7 8 Sudeste 21 Sudeste 0 -- -- 41
2019-06-02 19:00:00 29 17 Este 27 Este 0 -- -- 34
2019-06-02 18:00:00 32.2 9 Norte 30 Nordeste 0 -- -- 27
2019-06-02 17:00:00 -- 18 Este 31 Nordeste 0 -- -- --
2019-06-02 16:00:00 33.3 17 Nordeste 26 Nordeste 0 -- -- 25
2019-06-02 15:00:00 32.7 14 Norte 30 Nordeste 0 -- -- 35
2019-06-02 14:00:00 32.4 19 Noroeste 27 Nordeste 0 -- -- 41
2019-06-02 13:00:00 33.2 15 Norte 26 Nordeste 0 -- -- 32
2019-06-02 12:00:00 32.5 16 Nordeste 27 Nordeste 0 -- -- 27
2019-06-02 11:00:00 30 10 Nordeste 17 Nordeste 0 -- -- 33
2019-06-02 10:00:00 28.2 5 Sudeste 10 Noroeste 0 -- -- 32
2019-06-02 09:00:00 25.1 5 Norte 18 Noroeste 0 -- -- 42
2019-06-02 08:00:00 20.4 10 Noroeste 20 Norte 0 -- -- 56
2019-06-02 07:00:00 17.7 16 Norte 24 Norte 0 -- -- 87
2019-06-02 06:00:00 17.1 8 Norte 32 Norte 0 -- -- 94
2019-06-02 05:00:00 17.5 25 Norte 33 Norte 0 -- -- 94
2019-06-02 04:00:00 17.5 11 Norte 19 Norte 0 -- -- 85
2019-06-02 03:00:00 17.9 13 Norte 19 Norte 0 -- -- 90
2019-06-02 02:00:00 19.7 15 Norte 21 Norte 0 -- -- 77
2019-06-02 01:00:00 22.2 13 Norte 21 Norte 0 -- -- 46
2019-06-02 00:00:00 19.6 8 Noroeste 19 Norte 0 -- -- 83
2019-06-01 23:00:00 19.3 15 Norte 22 Norte 0 -- -- 89
2019-06-01 22:00:00 19.9 18 Norte 24 Norte 0 -- -- 86
2019-06-01 21:00:00 21 19 Norte 26 Norte 0 -- -- 82
2019-06-01 20:00:00 23.5 17 Norte 24 Noroeste 0 -- -- 71
2019-06-01 19:00:00 25.2 17 Norte 29 Norte 0 -- -- 64
2019-06-01 18:00:00 26.5 15 Norte 24 Noroeste 0 -- -- 59
2019-06-01 17:00:00 27.1 12 Noroeste 23 Noroeste 0 -- -- 57
2019-06-01 16:00:00 27.5 13 Norte 25 Noroeste 0 -- -- 54
2019-06-01 15:00:00 28 13 Norte 23 Sudeste 0 -- -- 54
2019-06-01 14:00:00 28.2 13 Este 22 Este 0 -- -- 53
2019-06-01 13:00:00 26.8 7 Noroeste 19 Nordeste 0 -- -- 56
2019-06-01 12:00:00 25.3 8 Norte 14 Norte 0 -- -- 60
2019-06-01 11:00:00 22.9 7 Nordeste 12 Este 0 -- -- 68
2019-06-01 10:00:00 20.6 5 Nordeste 20 Norte 0 -- -- 77
2019-06-01 09:00:00 18.7 15 Norte 31 Noroeste 0 -- -- 86
2019-06-01 08:00:00 17.2 20 Norte 30 Noroeste 0 -- -- 92
2019-06-01 07:00:00 17 22 Norte 37 Noroeste 0 -- -- 93
2019-06-01 06:00:00 17 23 Noroeste 39 Noroeste 0 -- -- 93
2019-06-01 05:00:00 17 30 Norte 41 Norte 0 -- -- 93
2019-06-01 04:00:00 17 26 Norte 39 Norte 0 -- -- 93
2019-06-01 03:00:00 17.3 27 Norte 34 Norte 0 -- -- 91
2019-06-01 02:00:00 17.1 8 Noroeste 10 Norte 0 -- -- 88
2019-06-01 01:00:00 17.7 2 Norte 18 Norte 0 -- -- 90
2019-06-01 00:00:00 17.6 15 Norte 22 Norte 0 -- -- 89
2019-05-31 23:00:00 17.7 18 Norte 28 Norte 0 -- -- 89
2019-05-31 22:00:00 17.9 17 Norte 34 Noroeste 0 -- -- 89
2019-05-31 21:00:00 18 19 Norte 48 Noroeste 0 -- -- 87
2019-05-31 20:00:00 18.2 39 Noroeste 50 Noroeste 0 -- -- 83
2019-05-31 19:00:00 19.6 37 Noroeste 51 Noroeste 0 -- -- 79
2019-05-31 18:00:00 20.7 36 Noroeste 48 Norte 0 -- -- 74
2019-05-31 17:00:00 22 34 Norte 45 Noroeste 0 -- -- 69
2019-05-31 16:00:00 23 32 Norte 40 Norte 0 -- -- 66
2019-05-31 15:00:00 23.5 28 Norte 39 Noroeste 0 -- -- 64
2019-05-31 14:00:00 23.5 29 Norte 36 Noroeste 0 -- -- 64
2019-05-31 13:00:00 22.2 23 Norte 38 Norte 0 -- -- 67
2019-05-31 12:00:00 21.6 28 Norte 37 Norte 0 -- -- 70
2019-05-31 11:00:00 20.8 22 Norte 31 Norte 0 -- -- 73
2019-05-31 10:00:00 18.8 24 Norte 46 Noroeste 0 -- -- 83
2019-05-31 09:00:00 17.3 31 Noroeste 46 Norte 0 -- -- 89
2019-05-31 08:00:00 16.2 34 Norte 46 Norte 0 -- -- 93
2019-05-31 07:00:00 16 29 Norte 45 Norte 0 -- -- 93
2019-05-31 06:00:00 16.1 30 Norte 42 Noroeste 0 -- -- 93
2019-05-31 05:00:00 16.3 27 Norte 37 Norte 0 -- -- 92
2019-05-31 04:00:00 16.3 23 Norte 33 Norte 0 -- -- 92
2019-05-31 03:00:00 16.5 23 Noroeste 37 Norte 0 -- -- 92
2019-05-31 02:00:00 16.4 28 Norte 42 Norte 0 -- -- 91
2019-05-31 01:00:00 16.6 32 Norte 46 Noroeste 0 -- -- 90
2019-05-31 00:00:00 16.7 35 Noroeste 44 Noroeste 0 -- -- 89
2019-05-30 23:00:00 16.8 34 Noroeste 45 Noroeste 0 -- -- 89
2019-05-30 22:00:00 17 38 Noroeste 49 Noroeste 0 -- -- 88
2019-05-30 21:00:00 17.2 36 Noroeste 52 Noroeste 0 -- -- 87
2019-05-30 20:00:00 18 41 Noroeste 56 Norte 0 -- -- 82
2019-05-30 19:00:00 19.3 40 Norte 53 Noroeste 0 -- -- 76
2019-05-30 18:00:00 20.4 36 Noroeste 48 Noroeste 0 -- -- 72
2019-05-30 17:00:00 21.3 35 Norte 46 Norte 0 -- -- 67
2019-05-30 16:00:00 21.8 33 Noroeste 47 Norte 0 -- -- 68
2019-05-30 15:00:00 22 32 Noroeste 44 Noroeste 0 -- -- 67
2019-05-30 14:00:00 21.7 32 Norte 42 Noroeste 0 -- -- 67
2019-05-30 13:00:00 21.4 27 Noroeste 36 Noroeste 0 -- -- 68
2019-05-30 12:00:00 20.3 28 Noroeste 38 Noroeste 0 -- -- 72
2019-05-30 11:00:00 19.6 28 Noroeste 41 Norte 0 -- -- 75
2019-05-30 10:00:00 18.2 30 Noroeste 41 Norte 0 -- -- 79
2019-05-30 09:00:00 16.5 26 Noroeste 36 Noroeste 0 -- -- 86
2019-05-30 08:00:00 15.8 23 Noroeste 36 Noroeste 0 -- -- 90
2019-05-30 07:00:00 15.3 22 Noroeste 40 Noroeste 0 -- -- 91
2019-05-30 06:00:00 15.2 30 Noroeste 38 Noroeste 0 -- -- 90
2019-05-30 05:00:00 15.5 31 Noroeste 45 Noroeste 0 -- -- 90
2019-05-30 04:00:00 15.5 33 Norte 47 Noroeste 0 -- -- 89
2019-05-30 03:00:00 15.9 29 Noroeste 43 Noroeste 0 -- -- 89
2019-05-30 02:00:00 15.8 28 Noroeste 41 Noroeste 0 -- -- 88
2019-05-30 01:00:00 16 33 Noroeste 43 Norte 0 -- -- 88
2019-05-30 00:00:00 16.3 28 Noroeste 42 Noroeste 0 -- -- 87
2019-05-29 23:00:00 16.5 32 Noroeste 43 Norte 0 -- -- 87
2019-05-29 22:00:00 16.8 32 Noroeste 44 Noroeste 0 -- -- 86
2019-05-29 21:00:00 -- 33 Noroeste 44 Noroeste 0 -- -- --
2019-05-29 20:00:00 18 32 Noroeste 49 Noroeste 0 -- -- 80
2019-05-29 19:00:00 19.3 35 Noroeste 47 Noroeste 0 -- -- 74
2019-05-29 18:00:00 20.4 32 Noroeste 45 Noroeste 0 -- -- 68
2019-05-29 17:00:00 21.5 32 Noroeste 43 Noroeste 0 -- -- 64
2019-05-29 16:00:00 22.2 26 Noroeste 42 Noroeste 0 -- -- 62
2019-05-29 15:00:00 22.3 30 Noroeste 45 Noroeste 0 -- -- 62
2019-05-29 14:00:00 21.5 31 Noroeste 46 Noroeste 0 -- -- 65
2019-05-29 13:00:00 21.1 32 Noroeste 42 Noroeste 0 -- -- 67
2019-05-29 12:00:00 20.1 30 Noroeste 42 Noroeste 0 -- -- 70
2019-05-29 11:00:00 19.7 25 Noroeste 43 Noroeste 0 -- -- 73
2019-05-29 10:00:00 18.3 29 Noroeste 40 Noroeste 0 -- -- 77
2019-05-29 09:00:00 17.6 32 Noroeste 42 Noroeste 0 -- -- 81
2019-05-29 08:00:00 16.6 29 Noroeste 41 Noroeste 0 -- -- 86
2019-05-29 07:00:00 15.9 28 Noroeste 41 Noroeste 0 -- -- 87
2019-05-29 06:00:00 16 27 Noroeste 46 Norte 0 -- -- 88
2019-05-29 05:00:00 16 31 Noroeste 45 Noroeste 0 -- -- 88
2019-05-29 04:00:00 16.1 28 Noroeste 42 Noroeste 0 -- -- 89
2019-05-29 03:00:00 16.3 30 Noroeste 46 Norte 0 -- -- 89
2019-05-29 02:00:00 16.5 31 Noroeste 45 Noroeste 0 -- -- 88
2019-05-29 01:00:00 16.5 35 Noroeste 48 Noroeste 0 -- -- 87
2019-05-29 00:00:00 16.9 32 Noroeste 45 Norte 0 -- -- 88
2019-05-28 23:00:00 17 31 Noroeste 47 Noroeste 0 -- -- 87
2019-05-28 22:00:00 17.2 33 Norte 46 Noroeste 0 -- -- 86
2019-05-28 21:00:00 17.7 27 Noroeste 42 Norte 0 -- -- 84
2019-05-28 20:00:00 18.3 31 Noroeste 44 Noroeste 0 -- -- 81
2019-05-28 19:00:00 19.3 33 Noroeste 45 Noroeste 0 -- -- 78
2019-05-28 18:00:00 21.4 30 Noroeste 41 Noroeste 0 -- -- 71
2019-05-28 17:00:00 22.1 27 Norte 40 Noroeste 0 -- -- 68
2019-05-28 16:00:00 22.6 28 Norte 40 Noroeste 0 -- -- 66
2019-05-28 15:00:00 23 27 Norte 39 Noroeste 0 -- -- 64
2019-05-28 14:00:00 22.7 23 Noroeste 42 Noroeste 0 -- -- 66
2019-05-28 13:00:00 -- 25 Noroeste 40 Norte 0 -- -- --
2019-05-28 12:00:00 21.7 27 Norte 45 Norte 0 -- -- 69
2019-05-28 11:00:00 20.5 36 Noroeste 49 Noroeste 0 -- -- 74
2019-05-28 10:00:00 19.3 35 Noroeste 47 Noroeste 0 -- -- 79
2019-05-28 09:00:00 18 33 Noroeste 47 Norte 0 -- -- 85
2019-05-28 08:00:00 17.1 36 Noroeste 49 Noroeste 0 -- -- 87
2019-05-28 07:00:00 16.8 38 Noroeste 49 Noroeste 0 -- -- 90
2019-05-28 06:00:00 16.8 35 Noroeste 50 Noroeste 0 -- -- 90
2019-05-28 05:00:00 16.9 34 Noroeste 47 Noroeste 0 -- -- 91
2019-05-28 04:00:00 17 34 Noroeste 47 Noroeste 0 -- -- 90
2019-05-28 03:00:00 17 36 Noroeste 46 Noroeste 0 -- -- 91
2019-05-28 02:00:00 16.9 33 Noroeste 44 Noroeste 0 -- -- 91
2019-05-28 01:00:00 17 27 Noroeste 46 Norte 0 -- -- 91
2019-05-28 00:00:00 17.2 33 Noroeste 44 Noroeste 0 -- -- 91
2019-05-27 23:00:00 17.4 32 Norte 45 Norte 0 -- -- 90
2019-05-27 22:00:00 17.6 33 Norte 48 Norte 0 -- -- 89
2019-05-27 21:00:00 17.9 33 Norte 44 Noroeste 0 -- -- 88
2019-05-27 20:00:00 18.9 32 Noroeste 47 Noroeste 0 -- -- 83
2019-05-27 19:00:00 20.4 36 Noroeste 46 Noroeste 0 -- -- 78
2019-05-27 18:00:00 21.8 31 Norte 45 Noroeste 0 -- -- 74
2019-05-27 17:00:00 22.9 32 Norte 44 Noroeste 0 -- -- 70
2019-05-27 16:00:00 23.7 33 Noroeste 47 Noroeste 0 -- -- 68
2019-05-27 15:00:00 23.6 34 Norte 46 Norte 0 -- -- 69
2019-05-27 14:00:00 24.1 30 Norte 42 Norte 0 -- -- 66
2019-05-27 13:00:00 23.4 28 Norte 40 Norte 0 -- -- 67
2019-05-27 12:00:00 22.5 30 Noroeste 48 Noroeste 0 -- -- 71
2019-05-27 11:00:00 21.3 29 Noroeste 38 Norte 0 -- -- 76
2019-05-27 10:00:00 20 28 Noroeste 38 Noroeste 0 -- -- 81
2019-05-27 09:00:00 18.5 25 Noroeste 33 Noroeste 0 -- -- 86
2019-05-27 08:00:00 17.3 24 Noroeste 43 Noroeste 0 -- -- 92
2019-05-27 07:00:00 16.9 25 Noroeste 36 Norte 0 -- -- 93
2019-05-27 06:00:00 17 23 Noroeste 35 Noroeste 0 -- -- 93
2019-05-27 05:00:00 17.2 24 Noroeste 37 Noroeste 0 -- -- 92
2019-05-27 04:00:00 17.1 27 Noroeste 37 Noroeste 0 -- -- 92
2019-05-27 03:00:00 17.3 29 Noroeste 40 Noroeste 0 -- -- 91
2019-05-27 02:00:00 17.4 29 Noroeste 40 Noroeste 0 -- -- 91
2019-05-27 01:00:00 17.4 30 Noroeste 39 Noroeste 0 -- -- 90
2019-05-27 00:00:00 17.6 28 Noroeste 43 Noroeste 0 -- -- 90
2019-05-26 23:00:00 17.7 31 Noroeste 45 Noroeste 0 -- -- 87
2019-05-26 22:00:00 17.9 29 Noroeste 42 Noroeste 0 -- -- 86
2019-05-26 21:00:00 18.1 28 Norte 46 Norte 0 -- -- 86
2019-05-26 20:00:00 19.1 33 Norte 51 Noroeste 0 -- -- 81
2019-05-26 19:00:00 20.6 24 Norte 40 Norte 0 -- -- 76
2019-05-26 18:00:00 21.2 31 Norte 44 Norte 0 -- -- 75
2019-05-26 17:00:00 22.5 30 Norte 40 Norte 0 -- -- 68
2019-05-26 16:00:00 22.8 28 Norte 41 Noroeste 0 -- -- 63
2019-05-26 15:00:00 22.7 32 Norte 45 Norte 0 -- -- 63
2019-05-26 14:00:00 22.4 34 Norte 48 Noroeste 0 -- -- 65
2019-05-26 13:00:00 22.3 27 Norte 42 Noroeste 0 -- -- 65
2019-05-26 12:00:00 21.3 31 Noroeste 44 Noroeste 0 -- -- 67
2019-05-26 11:00:00 20.5 27 Noroeste 43 Noroeste 0 -- -- 71
2019-05-26 10:00:00 19.3 32 Norte 44 Noroeste 0 -- -- 76
2019-05-26 09:00:00 18.2 28 Noroeste 42 Noroeste 0 -- -- 80
2019-05-26 08:00:00 16.8 32 Noroeste 43 Noroeste 0 -- -- 87
2019-05-26 07:00:00 16 28 Noroeste 40 Noroeste 0 -- -- 90
2019-05-26 06:00:00 16.1 31 Noroeste 41 Noroeste 0 -- -- 90
2019-05-26 05:00:00 16.1 29 Noroeste 40 Noroeste 0 -- -- 88
2019-05-26 04:00:00 16.3 24 Norte 35 Norte 0 -- -- 87
2019-05-26 03:00:00 16.5 21 Norte 37 Norte 0 -- -- 87
2019-05-26 02:00:00 16.9 24 Norte 43 Norte 0 -- -- 83
2019-05-26 01:00:00 17 32 Norte 50 Norte 0 -- -- 79
2019-05-26 00:00:00 17 35 Norte 54 Noroeste 0 -- -- 78
2019-05-25 23:00:00 16.8 38 Norte 49 Norte 0 -- -- 76
2019-05-25 22:00:00 17.1 36 Norte 50 Norte 0 -- -- 75
2019-05-25 21:00:00 17.4 33 Norte 48 Noroeste 0 -- -- 76
2019-05-25 20:00:00 17.7 33 Noroeste 48 Noroeste 0 -- -- 75
2019-05-25 19:00:00 19.1 37 Noroeste 49 Noroeste 0 -- -- 69
2019-05-25 18:00:00 20 32 Noroeste 48 Norte 0 -- -- 68
2019-05-25 17:00:00 21 33 Noroeste 48 Norte 0 -- -- 65
2019-05-25 16:00:00 21.8 35 Noroeste 46 Noroeste 0 -- -- 62
2019-05-25 15:00:00 22.8 31 Noroeste 44 Noroeste 0 -- -- 61
2019-05-25 14:00:00 23.1 28 Norte 42 Norte 0 -- -- 57
2019-05-25 13:00:00 22.1 30 Norte 50 Norte 0 -- -- 63
2019-05-25 12:00:00 21 32 Norte 48 Norte 0 -- -- 67
2019-05-25 11:00:00 20.1 35 Norte 50 Noroeste 0 -- -- 72
2019-05-25 10:00:00 18.5 33 Norte 45 Norte 0 -- -- 82
2019-05-25 09:00:00 17.8 28 Norte 44 Norte 0 -- -- 84
2019-05-25 08:00:00 16.8 24 Norte 37 Norte 0 -- -- 90
2019-05-25 07:00:00 16.5 23 Norte 33 Norte 0 -- -- 89
2019-05-25 06:00:00 16.2 24 Norte 35 Norte 0 -- -- 92
2019-05-25 05:00:00 15.9 24 Norte 33 Norte 0 -- -- 93
2019-05-25 04:00:00 15.8 22 Norte 34 Norte 0 -- -- 93
2019-05-25 03:00:00 15.9 30 Norte 41 Norte 0 -- -- 93
2019-05-25 02:00:00 16 21 Norte 41 Noroeste 0 -- -- 93
2019-05-25 01:00:00 16.1 25 Noroeste 38 Noroeste 0 -- -- 93
2019-05-25 00:00:00 16.3 22 Noroeste 36 Norte 0 -- -- 91
2019-05-24 23:00:00 16.6 24 Norte 41 Noroeste 0 -- -- 90
2019-05-24 22:00:00 17 31 Norte 50 Norte 0 -- -- 88
2019-05-24 21:00:00 17.6 33 Norte 46 Norte 0 -- -- 86
2019-05-24 20:00:00 19.3 36 Norte 50 Norte 0 -- -- 77
2019-05-24 19:00:00 21.2 35 Norte 49 Norte 0 -- -- 70
2019-05-24 18:00:00 22.7 36 Norte 49 Noroeste 0 -- -- 64
2019-05-24 17:00:00 23.2 38 Noroeste 53 Noroeste 0 -- -- 65
2019-05-24 16:00:00 23.8 38 Noroeste 51 Noroeste 0 -- -- 64
2019-05-24 15:00:00 25.3 33 Norte 45 Noroeste 0 -- -- 57
2019-05-24 14:00:00 26.4 22 Norte 41 Norte 0 -- -- 44
2019-05-24 13:00:00 25 24 Norte 40 Norte 0 -- -- 56
2019-05-24 12:00:00 24.2 24 Noroeste 35 Noroeste 0 -- -- 60
2019-05-24 11:00:00 23.5 17 Norte 30 Norte 0 -- -- 53
2019-05-24 10:00:00 20.9 18 Noroeste 37 Noroeste 0 -- -- 74
2019-05-24 09:00:00 18.1 31 Noroeste 43 Noroeste 0 -- -- 86
2019-05-24 08:00:00 17.1 28 Noroeste 43 Noroeste 0 -- -- 92
2019-05-24 07:00:00 16.3 30 Noroeste 42 Noroeste 0 -- -- 93
2019-05-24 06:00:00 16.3 30 Noroeste 42 Noroeste 0 -- -- 92
2019-05-24 05:00:00 -- 32 Noroeste 50 Noroeste 0 -- -- --
2019-05-24 04:00:00 16.5 32 Noroeste 51 Noroeste 0 -- -- 91
2019-05-24 03:00:00 16.6 37 Noroeste 54 Noroeste 0 -- -- 90
2019-05-24 02:00:00 16.6 40 Noroeste 56 Noroeste 0 -- -- 89
2019-05-24 01:00:00 16.7 36 Noroeste 45 Noroeste 0 -- -- 89
2019-05-24 00:00:00 16.7 32 Noroeste 44 Noroeste 0 -- -- 89
2019-05-23 23:00:00 16.7 29 Noroeste 42 Norte 0 -- -- 89
2019-05-23 22:00:00 16.8 30 Norte 44 Noroeste 0 -- -- 87
2019-05-23 21:00:00 17.4 30 Norte 48 Noroeste 0 -- -- 83
2019-05-23 20:00:00 18.2 33 Norte 54 Norte 0 -- -- 79
2019-05-23 19:00:00 19.8 37 Norte 54 Norte 0 -- -- 70
2019-05-23 18:00:00 21 34 Norte 51 Norte 0 -- -- 65
2019-05-23 17:00:00 21.9 35 Norte 53 Noroeste 0 -- -- 61
2019-05-23 16:00:00 22.1 39 Norte 57 Noroeste 0 -- -- 62
2019-05-23 15:00:00 22.2 38 Norte 53 Noroeste 0 -- -- 61
2019-05-23 14:00:00 22.4 35 Norte 51 Noroeste 0 -- -- 58
2019-05-23 13:00:00 22.2 35 Norte 53 Norte 0 -- -- 60
2019-05-23 12:00:00 21 34 Norte 51 Norte 0 -- -- 63
2019-05-23 11:00:00 20.1 35 Norte 50 Norte 0 -- -- 66
2019-05-23 10:00:00 19 36 Norte 46 Norte 0 -- -- 70
2019-05-23 09:00:00 18 32 Norte 49 Norte 0 -- -- 76
2019-05-23 08:00:00 16.6 33 Norte 46 Norte 0 -- -- 78
2019-05-23 07:00:00 15.8 30 Norte 45 Norte 0 -- -- 80
2019-05-23 06:00:00 16.2 32 Norte 46 Norte 0 -- -- 80
2019-05-23 05:00:00 16.4 32 Norte 53 Norte 0 -- -- 78
2019-05-23 04:00:00 16.5 31 Norte 53 Norte 0 -- -- 79
2019-05-23 03:00:00 16.5 33 Norte 54 Norte 0 -- -- 77
2019-05-23 02:00:00 16.8 31 Norte 56 Norte 0 -- -- 78
2019-05-23 01:00:00 16.9 37 Norte 61 Norte 0 -- -- 80
2019-05-23 00:00:00 16.9 34 Norte 54 Norte 0 -- -- 79
2019-05-22 23:00:00 17.1 39 Norte 58 Norte 0 -- -- 75
2019-05-22 22:00:00 17.2 33 Norte 51 Norte 0 -- -- 80
2019-05-22 21:00:00 17.2 33 Norte 47 Norte 0 -- -- 77
2019-05-22 20:00:00 18.2 37 Norte 50 Norte 0 -- -- 76
2019-05-22 19:00:00 19 38 Norte 52 Norte 0 -- -- 69
2019-05-22 18:00:00 20.1 35 Norte 50 Noroeste 0 -- -- 69
2019-05-22 17:00:00 20.9 35 Norte 54 Noroeste 0 -- -- 69
2019-05-22 16:00:00 21.2 36 Noroeste 50 Noroeste 0 -- -- 70
2019-05-22 15:00:00 21.6 35 Noroeste 57 Noroeste 0 -- -- 67
2019-05-22 14:00:00 22.4 33 Noroeste 49 Noroeste 0 -- -- 65
2019-05-22 13:00:00 23.3 32 Norte 48 Norte 0 -- -- 59
2019-05-22 12:00:00 21.5 31 Norte 49 Norte 0 -- -- 66
2019-05-22 11:00:00 20.8 34 Norte 48 Norte 0 -- -- 68
2019-05-22 10:00:00 19.2 32 Norte 45 Norte 0 -- -- 71
2019-05-22 09:00:00 17.7 26 Norte 40 Norte 0 -- -- 82
2019-05-22 08:00:00 17 28 Norte 39 Norte 0 -- -- 82
2019-05-22 07:00:00 17 28 Norte 49 Noroeste 0 -- -- 83
2019-05-22 06:00:00 16.8 32 Norte 48 Norte 0 -- -- 87
2019-05-22 05:00:00 16.8 30 Norte 44 Norte 0 -- -- 89
2019-05-22 04:00:00 16.7 29 Norte 44 Norte 0 -- -- 88
2019-05-22 03:00:00 16.6 30 Norte 47 Norte 0 -- -- 89
2019-05-22 02:00:00 16.3 34 Norte 48 Norte 0 -- -- 88
2019-05-22 01:00:00 16.4 31 Noroeste 46 Noroeste 0 -- -- 87
2019-05-22 00:00:00 16.4 29 Noroeste 39 Noroeste 0 -- -- 85
2019-05-21 23:00:00 16.6 28 Norte 43 Noroeste 0 -- -- 85
2019-05-21 22:00:00 16.8 30 Norte 43 Norte 0 -- -- 85
2019-05-21 21:00:00 17.3 30 Norte 44 Norte 0 -- -- 80
2019-05-21 20:00:00 18 31 Norte 48 Noroeste 0 -- -- 80
2019-05-21 19:00:00 18.9 38 Noroeste 49 Noroeste 0 -- -- 74
2019-05-21 18:00:00 20 35 Norte 49 Noroeste 0 -- -- 70
2019-05-21 17:00:00 21 35 Norte 49 Noroeste 0 -- -- 67
2019-05-21 16:00:00 21.9 34 Noroeste 52 Noroeste 0 -- -- 60
2019-05-21 15:00:00 21.3 33 Noroeste 45 Norte 0 -- -- 65
2019-05-21 14:00:00 20.8 30 Noroeste 48 Noroeste 0 -- -- 68
2019-05-21 13:00:00 20.1 27 Norte 45 Noroeste 0 -- -- 70
2019-05-21 12:00:00 19.6 27 Norte 39 Norte 0 -- -- 71
2019-05-21 11:00:00 18.4 23 Norte 38 Norte 0 -- -- 73
2019-05-21 10:00:00 17.8 22 Norte 37 Norte 0 -- -- 77
2019-05-21 09:00:00 17.2 24 Norte 32 Norte 0 -- -- 83
2019-05-21 08:00:00 16.9 18 Norte 26 Norte 0 -- -- 84
2019-05-21 07:00:00 16.8 17 Norte 26 Norte 0 -- -- 83
2019-05-21 06:00:00 16.6 18 Norte 30 Norte 0 -- -- 88
2019-05-21 05:00:00 16.8 21 Norte 35 Norte 0 -- -- 82
2019-05-21 04:00:00 16.8 21 Norte 38 Norte 0 -- -- 79
2019-05-21 03:00:00 16.7 21 Norte 34 Norte 0 -- -- 81
2019-05-21 02:00:00 16.3 23 Norte 36 Norte 0 -- -- 84
2019-05-21 01:00:00 16.5 21 Norte 40 Noroeste 0 -- -- 86
2019-05-21 00:00:00 16.4 23 Norte 47 Noroeste 0 -- -- 84